KRVS/RVS METAR and TAF weather

Enter ICAO airport designator
Station Type Date Time Source
KRVS METAR 2022/12/02 21:53 UTC NOAA

KRVS 022153Z 18016G24KT 10SM BKN010 OVC022 13/10 A2984 RMK AO2 SLP108 T01280100


Station Type Date Time Source
KRVS Decoded METAR 2022/12/02 21:53 UTC NOAA

TULSA JONES JR. AIRPORT, OK, United States (KRVS) 36-03N 095-59W 200M
Dec 02, 2022 - 04:53 PM EST / 2022.12.02 2153 UTC
Wind: from the S (180 degrees) at 18 MPH (16 KT) gusting to 28 MPH (24 KT):0
Visibility: 10 mile(s):0
Sky conditions: overcast
Temperature: 55.0 F (12.8 C)
Dew Point: 50.0 F (10.0 C)
Relative Humidity: 83%
Pressure (altimeter): 29.84 in. Hg (1010 hPa)
ob: KRVS 022153Z 18016G24KT 10SM BKN010 OVC022 13/10 A2984 RMK AO2 SLP108 T01280100
cycle: 22

Station Type Date Time Source
KRVS TAF 2022/12/02 20:06 UTC NOAA

TAF
AMD KRVS 022002Z 0220/0318 19014G25KT P6SM OVC011
FM030100 20010G17KT P6SM BKN250
FM030300 25012KT P6SM BKN250
FM030500 36020G30KT P6SM BKN250
FM031000 01012KT P6SM SCT250

Example: see airport list